Terminal Aerodrome Forecast
Issued by NWS

Home | Current Version | Previous Version | Text Only | Print | Product List | Glossary On
Versions: 1 2 3 4 5 6 7 8 9 10 11 12 13 14 15 16 17 18 19 20 21 22 23 24 25 26 27
000
FTAK31 PAFA 041724
TAFAUN
TAF
PAUN 041724Z 0418/0518 09005KT P6SM -RA SCT025 BKN035 OVC050
     FM042000 VRB03KT P6SM -RA BKN025 OVC035
     FM050600 26005KT P6SM -RA BKN015 OVC025=

USA.gov is the U.S. government's official web portal to all federal, state and local government web resources and services.